sensor_id;sensor_type;location;lat;lon;timestamp;pressure;altitude;pressure_sealevel;temperature
20289;BMP180;10303;51.960;8.372;2023-07-28T00:02:14;99373.00;;;21.40
20289;BMP180;10303;51.960;8.372;2023-07-28T00:04:40;99365.00;;;21.40
20289;BMP180;10303;51.960;8.372;2023-07-28T00:07:06;99361.00;;;21.40
20289;BMP180;10303;51.960;8.372;2023-07-28T00:09:32;99353.00;;;21.40
20289;BMP180;10303;51.960;8.372;2023-07-28T00:12:00;99357.00;;;21.30
20289;BMP180;10303;51.960;8.372;2023-07-28T00:14:27;99369.00;;;21.30
20289;BMP180;10303;51.960;8.372;2023-07-28T00:16:56;99360.00;;;21.30
20289;BMP180;10303;51.960;8.372;2023-07-28T00:19:22;99363.00;;;21.40
20289;BMP180;10303;51.960;8.372;2023-07-28T00:21:49;99355.00;;;21.40
20289;BMP180;10303;51.960;8.372;2023-07-28T00:24:16;99346.00;;;21.40
20289;BMP180;10303;51.960;8.372;2023-07-28T00:26:44;99362.00;;;21.30
20289;BMP180;10303;51.960;8.372;2023-07-28T00:29:11;99359.00;;;21.40
20289;BMP180;10303;51.960;8.372;2023-07-28T00:31:37;99351.00;;;21.30
20289;BMP180;10303;51.960;8.372;2023-07-28T00:34:03;99340.00;;;21.30
20289;BMP180;10303;51.960;8.372;2023-07-28T00:36:30;99351.00;;;21.30
20289;BMP180;10303;51.960;8.372;2023-07-28T00:38:57;99351.00;;;21.30
20289;BMP180;10303;51.960;8.372;2023-07-28T00:41:23;99344.00;;;21.30
20289;BMP180;10303;51.960;8.372;2023-07-28T00:43:49;99344.00;;;21.30
20289;BMP180;10303;51.960;8.372;2023-07-28T00:46:16;99341.00;;;21.30
20289;BMP180;10303;51.960;8.372;2023-07-28T00:48:43;99351.00;;;21.30
20289;BMP180;10303;51.960;8.372;2023-07-28T00:51:11;99355.00;;;21.30
20289;BMP180;10303;51.960;8.372;2023-07-28T00:53:38;99349.00;;;21.30
20289;BMP180;10303;51.960;8.372;2023-07-28T00:56:05;99349.00;;;21.30
20289;BMP180;10303;51.960;8.372;2023-07-28T00:58:31;99350.00;;;21.30
20289;BMP180;10303;51.960;8.372;2023-07-28T01:00:58;99364.00;;;21.40
20289;BMP180;10303;51.960;8.372;2023-07-28T01:03:25;99360.00;;;21.30
20289;BMP180;10303;51.960;8.372;2023-07-28T01:06:10;99359.00;;;21.30
20289;BMP180;10303;51.960;8.372;2023-07-28T01:11:26;99356.00;;;21.30
20289;BMP180;10303;51.960;8.372;2023-07-28T01:13:52;99352.00;;;21.40
20289;BMP180;10303;51.960;8.372;2023-07-28T01:16:18;99367.00;;;21.40
20289;BMP180;10303;51.960;8.372;2023-07-28T01:18:44;99358.00;;;21.40
20289;BMP180;10303;51.960;8.372;2023-07-28T01:21:20;99365.00;;;21.30
20289;BMP180;10303;51.960;8.372;2023-07-28T01:24:28;99370.00;;;21.30
20289;BMP180;10303;51.960;8.372;2023-07-28T01:26:56;99364.00;;;21.30
20289;BMP180;10303;51.960;8.372;2023-07-28T01:29:22;99370.00;;;21.40
20289;BMP180;10303;51.960;8.372;2023-07-28T01:31:51;99366.00;;;21.30
20289;BMP180;10303;51.960;8.372;2023-07-28T01:34:17;99370.00;;;21.40
20289;BMP180;10303;51.960;8.372;2023-07-28T01:36:43;99371.00;;;21.30
20289;BMP180;10303;51.960;8.372;2023-07-28T01:39:09;99365.00;;;21.40
20289;BMP180;10303;51.960;8.372;2023-07-28T01:41:35;99366.00;;;21.30
20289;BMP180;10303;51.960;8.372;2023-07-28T01:44:02;99360.00;;;21.30
20289;BMP180;10303;51.960;8.372;2023-07-28T01:46:28;99367.00;;;21.30
20289;BMP180;10303;51.960;8.372;2023-07-28T01:48:54;99376.00;;;21.40
20289;BMP180;10303;51.960;8.372;2023-07-28T01:51:20;99372.00;;;21.40
20289;BMP180;10303;51.960;8.372;2023-07-28T01:53:46;99369.00;;;21.40
20289;BMP180;10303;51.960;8.372;2023-07-28T01:56:12;99374.00;;;21.40
20289;BMP180;10303;51.960;8.372;2023-07-28T01:58:38;99374.00;;;21.40
20289;BMP180;10303;51.960;8.372;2023-07-28T02:01:04;99372.00;;;21.30
20289;BMP180;10303;51.960;8.372;2023-07-28T02:03:30;99370.00;;;21.30
20289;BMP180;10303;51.960;8.372;2023-07-28T02:05:56;99370.00;;;21.30
20289;BMP180;10303;51.960;8.372;2023-07-28T02:08:22;99366.00;;;21.30
20289;BMP180;10303;51.960;8.372;2023-07-28T02:10:48;99368.00;;;21.30
20289;BMP180;10303;51.960;8.372;2023-07-28T02:13:14;99375.00;;;21.30
20289;BMP180;10303;51.960;8.372;2023-07-28T02:15:40;99367.00;;;21.30
20289;BMP180;10303;51.960;8.372;2023-07-28T02:18:06;99370.00;;;21.30
20289;BMP180;10303;51.960;8.372;2023-07-28T02:20:32;99369.00;;;21.30
20289;BMP180;10303;51.960;8.372;2023-07-28T02:23:00;99369.00;;;21.30
20289;BMP180;10303;51.960;8.372;2023-07-28T02:25:26;99373.00;;;21.30
20289;BMP180;10303;51.960;8.372;2023-07-28T02:27:58;99373.00;;;21.30
20289;BMP180;10303;51.960;8.372;2023-07-28T02:30:24;99372.00;;;21.30
20289;BMP180;10303;51.960;8.372;2023-07-28T02:32:50;99381.00;;;21.30
20289;BMP180;10303;51.960;8.372;2023-07-28T02:35:16;99381.00;;;21.30
20289;BMP180;10303;51.960;8.372;2023-07-28T02:37:42;99374.00;;;21.30
20289;BMP180;10303;51.960;8.372;2023-07-28T02:40:09;99384.00;;;21.30
20289;BMP180;10303;51.960;8.372;2023-07-28T02:42:35;99381.00;;;21.30
20289;BMP180;10303;51.960;8.372;2023-07-28T02:45:02;99390.00;;;21.30
20289;BMP180;10303;51.960;8.372;2023-07-28T02:47:28;99382.00;;;21.30
20289;BMP180;10303;51.960;8.372;2023-07-28T02:49:54;99383.00;;;21.30
20289;BMP180;10303;51.960;8.372;2023-07-28T02:52:20;99386.00;;;21.30
20289;BMP180;10303;51.960;8.372;2023-07-28T02:54:47;99377.00;;;21.30
20289;BMP180;10303;51.960;8.372;2023-07-28T02:57:13;99386.00;;;21.30
20289;BMP180;10303;51.960;8.372;2023-07-28T02:59:42;99385.00;;;21.30
20289;BMP180;10303;51.960;8.372;2023-07-28T03:02:08;99385.00;;;21.30
20289;BMP180;10303;51.960;8.372;2023-07-28T03:04:34;99389.00;;;21.30
20289;BMP180;10303;51.960;8.372;2023-07-28T03:07:20;99402.00;;;21.30
20289;BMP180;10303;51.960;8.372;2023-07-28T03:09:52;99400.00;;;21.30
20289;BMP180;10303;51.960;8.372;2023-07-28T03:12:18;99400.00;;;21.30
20289;BMP180;10303;51.960;8.372;2023-07-28T03:14:44;99400.00;;;21.30
20289;BMP180;10303;51.960;8.372;2023-07-28T03:17:10;99397.00;;;21.30
20289;BMP180;10303;51.960;8.372;2023-07-28T03:19:36;99398.00;;;21.30
20289;BMP180;10303;51.960;8.372;2023-07-28T03:22:03;99410.00;;;21.30
20289;BMP180;10303;51.960;8.372;2023-07-28T03:24:29;99408.00;;;21.30
20289;BMP180;10303;51.960;8.372;2023-07-28T03:26:55;99400.00;;;21.30
20289;BMP180;10303;51.960;8.372;2023-07-28T03:29:22;99405.00;;;21.30
20289;BMP180;10303;51.960;8.372;2023-07-28T03:31:48;99405.00;;;21.30
20289;BMP180;10303;51.960;8.372;2023-07-28T03:34:16;99412.00;;;21.30
20289;BMP180;10303;51.960;8.372;2023-07-28T03:36:43;99418.00;;;21.30
20289;BMP180;10303;51.960;8.372;2023-07-28T03:39:09;99418.00;;;21.30
20289;BMP180;10303;51.960;8.372;2023-07-28T03:41:35;99413.00;;;21.30
20289;BMP180;10303;51.960;8.372;2023-07-28T03:44:01;99417.00;;;21.30
20289;BMP180;10303;51.960;8.372;2023-07-28T03:46:28;99413.00;;;21.30
20289;BMP180;10303;51.960;8.372;2023-07-28T03:48:54;99410.00;;;21.30
20289;BMP180;10303;51.960;8.372;2023-07-28T03:51:20;99411.00;;;21.30
20289;BMP180;10303;51.960;8.372;2023-07-28T03:53:46;99416.00;;;21.30
20289;BMP180;10303;51.960;8.372;2023-07-28T03:56:12;99409.00;;;21.30
20289;BMP180;10303;51.960;8.372;2023-07-28T03:58:38;99423.00;;;21.30
20289;BMP180;10303;51.960;8.372;2023-07-28T04:01:04;99418.00;;;21.30
20289;BMP180;10303;51.960;8.372;2023-07-28T04:03:33;99409.00;;;21.30
20289;BMP180;10303;51.960;8.372;2023-07-28T04:05:59;99408.00;;;21.30
20289;BMP180;10303;51.960;8.372;2023-07-28T04:08:25;99405.00;;;21.30
20289;BMP180;10303;51.960;8.372;2023-07-28T04:10:51;99400.00;;;21.40
20289;BMP180;10303;51.960;8.372;2023-07-28T04:13:17;99415.00;;;21.40
20289;BMP180;10303;51.960;8.372;2023-07-28T04:15:43;99418.00;;;21.40
20289;BMP180;10303;51.960;8.372;2023-07-28T04:18:09;99415.00;;;21.40
20289;BMP180;10303;51.960;8.372;2023-07-28T04:20:35;99420.00;;;21.40
20289;BMP180;10303;51.960;8.372;2023-07-28T04:23:01;99417.00;;;21.40
20289;BMP180;10303;51.960;8.372;2023-07-28T04:25:32;99420.00;;;21.40
20289;BMP180;10303;51.960;8.372;2023-07-28T04:27:58;99428.00;;;21.40
20289;BMP180;10303;51.960;8.372;2023-07-28T04:30:24;99424.00;;;21.40
20289;BMP180;10303;51.960;8.372;2023-07-28T04:32:51;99426.00;;;21.40
20289;BMP180;10303;51.960;8.372;2023-07-28T04:35:20;99431.00;;;21.40
20289;BMP180;10303;51.960;8.372;2023-07-28T04:38:02;99436.00;;;21.40
20289;BMP180;10303;51.960;8.372;2023-07-28T04:40:39;99439.00;;;21.40
20289;BMP180;10303;51.960;8.372;2023-07-28T04:43:06;99440.00;;;21.40
20289;BMP180;10303;51.960;8.372;2023-07-28T04:45:33;99438.00;;;21.40
20289;BMP180;10303;51.960;8.372;2023-07-28T04:48:04;99439.00;;;21.40
20289;BMP180;10303;51.960;8.372;2023-07-28T04:50:30;99448.00;;;21.40
20289;BMP180;10303;51.960;8.372;2023-07-28T04:53:18;99445.00;;;21.40
20289;BMP180;10303;51.960;8.372;2023-07-28T04:56:04;99451.00;;;21.40
20289;BMP180;10303;51.960;8.372;2023-07-28T04:58:30;99442.00;;;21.40
20289;BMP180;10303;51.960;8.372;2023-07-28T05:01:00;99448.00;;;21.40
20289;BMP180;10303;51.960;8.372;2023-07-28T05:03:27;99436.00;;;21.50
20289;BMP180;10303;51.960;8.372;2023-07-28T05:06:03;99451.00;;;21.50
20289;BMP180;10303;51.960;8.372;2023-07-28T05:08:30;99441.00;;;21.50
20289;BMP180;10303;51.960;8.372;2023-07-28T05:10:57;99440.00;;;21.50
20289;BMP180;10303;51.960;8.372;2023-07-28T05:13:24;99442.00;;;21.50
20289;BMP180;10303;51.960;8.372;2023-07-28T05:15:54;99442.00;;;21.50
20289;BMP180;10303;51.960;8.372;2023-07-28T05:18:43;99445.00;;;21.50
20289;BMP180;10303;51.960;8.372;2023-07-28T05:21:35;99443.00;;;21.50
20289;BMP180;10303;51.960;8.372;2023-07-28T05:24:01;99444.00;;;21.50
20289;BMP180;10303;51.960;8.372;2023-07-28T05:26:29;99440.00;;;21.60
20289;BMP180;10303;51.960;8.372;2023-07-28T05:28:55;99452.00;;;21.60
20289;BMP180;10303;51.960;8.372;2023-07-28T05:31:21;99453.00;;;21.60
20289;BMP180;10303;51.960;8.372;2023-07-28T05:33:48;99451.00;;;21.60
20289;BMP180;10303;51.960;8.372;2023-07-28T05:36:15;99464.00;;;21.60
20289;BMP180;10303;51.960;8.372;2023-07-28T05:38:41;99466.00;;;21.60
20289;BMP180;10303;51.960;8.372;2023-07-28T05:41:07;99462.00;;;21.60
20289;BMP180;10303;51.960;8.372;2023-07-28T05:43:33;99461.00;;;21.60
20289;BMP180;10303;51.960;8.372;2023-07-28T05:46:01;99466.00;;;21.70
20289;BMP180;10303;51.960;8.372;2023-07-28T05:48:31;99468.00;;;21.70
20289;BMP180;10303;51.960;8.372;2023-07-28T05:50:58;99466.00;;;21.70
20289;BMP180;10303;51.960;8.372;2023-07-28T05:53:26;99472.00;;;21.70
20289;BMP180;10303;51.960;8.372;2023-07-28T05:55:57;99469.00;;;21.70
20289;BMP180;10303;51.960;8.372;2023-07-28T05:58:26;99467.00;;;21.70
20289;BMP180;10303;51.960;8.372;2023-07-28T06:00:52;99470.00;;;21.70
20289;BMP180;10303;51.960;8.372;2023-07-28T06:03:39;99465.00;;;21.80
20289;BMP180;10303;51.960;8.372;2023-07-28T06:06:11;99478.00;;;21.80
20289;BMP180;10303;51.960;8.372;2023-07-28T06:08:38;99471.00;;;21.80
20289;BMP180;10303;51.960;8.372;2023-07-28T06:11:07;99479.00;;;21.80
20289;BMP180;10303;51.960;8.372;2023-07-28T06:13:33;99486.00;;;21.80
20289;BMP180;10303;51.960;8.372;2023-07-28T06:16:00;99487.00;;;21.80
20289;BMP180;10303;51.960;8.372;2023-07-28T06:18:27;99479.00;;;21.80
20289;BMP180;10303;51.960;8.372;2023-07-28T06:21:15;99491.00;;;21.80
20289;BMP180;10303;51.960;8.372;2023-07-28T06:23:41;99499.00;;;21.90
20289;BMP180;10303;51.960;8.372;2023-07-28T06:26:08;99498.00;;;21.90
20289;BMP180;10303;51.960;8.372;2023-07-28T06:28:34;99507.00;;;21.90
20289;BMP180;10303;51.960;8.372;2023-07-28T06:31:00;99502.00;;;21.90
20289;BMP180;10303;51.960;8.372;2023-07-28T06:33:28;99515.00;;;21.90
20289;BMP180;10303;51.960;8.372;2023-07-28T06:35:55;99510.00;;;21.90
20289;BMP180;10303;51.960;8.372;2023-07-28T06:38:21;99504.00;;;21.90
20289;BMP180;10303;51.960;8.372;2023-07-28T06:40:47;99504.00;;;21.90
20289;BMP180;10303;51.960;8.372;2023-07-28T06:43:13;99518.00;;;21.90
20289;BMP180;10303;51.960;8.372;2023-07-28T06:45:40;99523.00;;;22.00
20289;BMP180;10303;51.960;8.372;2023-07-28T06:48:07;99521.00;;;22.00
20289;BMP180;10303;51.960;8.372;2023-07-28T06:50:33;99522.00;;;22.00
20289;BMP180;10303;51.960;8.372;2023-07-28T06:52:59;99532.00;;;22.00
20289;BMP180;10303;51.960;8.372;2023-07-28T06:55:26;99531.00;;;22.00
20289;BMP180;10303;51.960;8.372;2023-07-28T06:57:52;99517.00;;;22.00
20289;BMP180;10303;51.960;8.372;2023-07-28T07:00:18;99529.00;;;22.00
20289;BMP180;10303;51.960;8.372;2023-07-28T07:02:44;99527.00;;;22.00
20289;BMP180;10303;51.960;8.372;2023-07-28T07:05:11;99534.00;;;22.00
20289;BMP180;10303;51.960;8.372;2023-07-28T07:07:39;99536.00;;;22.10
20289;BMP180;10303;51.960;8.372;2023-07-28T07:10:06;99537.00;;;22.10
20289;BMP180;10303;51.960;8.372;2023-07-28T07:12:37;99532.00;;;22.10
20289;BMP180;10303;51.960;8.372;2023-07-28T07:15:04;99542.00;;;22.10
20289;BMP180;10303;51.960;8.372;2023-07-28T07:17:31;99557.00;;;22.10
20289;BMP180;10303;51.960;8.372;2023-07-28T07:19:58;99561.00;;;22.10
20289;BMP180;10303;51.960;8.372;2023-07-28T07:22:24;99563.00;;;22.20
20289;BMP180;10303;51.960;8.372;2023-07-28T07:24:50;99551.00;;;22.20
20289;BMP180;10303;51.960;8.372;2023-07-28T07:27:16;99554.00;;;22.20
20289;BMP180;10303;51.960;8.372;2023-07-28T07:29:42;99564.00;;;22.20
20289;BMP180;10303;51.960;8.372;2023-07-28T07:32:08;99563.00;;;22.20
20289;BMP180;10303;51.960;8.372;2023-07-28T07:34:35;99561.00;;;22.30
20289;BMP180;10303;51.960;8.372;2023-07-28T07:37:03;99557.00;;;22.40
20289;BMP180;10303;51.960;8.372;2023-07-28T07:39:29;99561.00;;;22.40
20289;BMP180;10303;51.960;8.372;2023-07-28T07:41:56;99563.00;;;22.40
20289;BMP180;10303;51.960;8.372;2023-07-28T07:44:23;99576.00;;;22.50
20289;BMP180;10303;51.960;8.372;2023-07-28T07:46:50;99579.00;;;22.50
20289;BMP180;10303;51.960;8.372;2023-07-28T07:49:16;99588.00;;;22.60
20289;BMP180;10303;51.960;8.372;2023-07-28T07:51:42;99581.00;;;22.70
20289;BMP180;10303;51.960;8.372;2023-07-28T07:54:07;99580.00;;;22.70
20289;BMP180;10303;51.960;8.372;2023-07-28T07:56:33;99578.00;;;22.70
20289;BMP180;10303;51.960;8.372;2023-07-28T07:58:59;99582.00;;;22.80
20289;BMP180;10303;51.960;8.372;2023-07-28T08:01:25;99576.00;;;22.80
20289;BMP180;10303;51.960;8.372;2023-07-28T08:03:51;99575.00;;;22.90
20289;BMP180;10303;51.960;8.372;2023-07-28T08:06:17;99583.00;;;22.90
20289;BMP180;10303;51.960;8.372;2023-07-28T08:08:43;99581.00;;;23.00
20289;BMP180;10303;51.960;8.372;2023-07-28T08:11:11;99589.00;;;23.10
20289;BMP180;10303;51.960;8.372;2023-07-28T08:13:37;99591.00;;;23.10
20289;BMP180;10303;51.960;8.372;2023-07-28T08:16:03;99574.00;;;23.20
20289;BMP180;10303;51.960;8.372;2023-07-28T08:18:29;99587.00;;;23.20
20289;BMP180;10303;51.960;8.372;2023-07-28T08:20:55;99584.00;;;23.30
20289;BMP180;10303;51.960;8.372;2023-07-28T08:23:21;99587.00;;;23.30
20289;BMP180;10303;51.960;8.372;2023-07-28T08:25:47;99590.00;;;23.40
20289;BMP180;10303;51.960;8.372;2023-07-28T08:28:14;99586.00;;;23.40
20289;BMP180;10303;51.960;8.372;2023-07-28T08:30:40;99579.00;;;23.50
20289;BMP180;10303;51.960;8.372;2023-07-28T08:33:06;99592.00;;;23.60
20289;BMP180;10303;51.960;8.372;2023-07-28T08:35:32;99588.00;;;23.60
20289;BMP180;10303;51.960;8.372;2023-07-28T08:37:58;99588.00;;;23.60
20289;BMP180;10303;51.960;8.372;2023-07-28T08:40:26;99596.00;;;23.70
20289;BMP180;10303;51.960;8.372;2023-07-28T08:42:53;99610.00;;;23.70
20289;BMP180;10303;51.960;8.372;2023-07-28T08:45:20;99605.00;;;23.70
20289;BMP180;10303;51.960;8.372;2023-07-28T08:47:47;99604.00;;;23.70
20289;BMP180;10303;51.960;8.372;2023-07-28T08:50:13;99606.00;;;23.80
20289;BMP180;10303;51.960;8.372;2023-07-28T08:52:39;99609.00;;;23.90
20289;BMP180;10303;51.960;8.372;2023-07-28T08:55:05;99616.00;;;24.00
20289;BMP180;10303;51.960;8.372;2023-07-28T08:57:32;99618.00;;;24.10
20289;BMP180;10303;51.960;8.372;2023-07-28T08:59:58;99622.00;;;24.10
20289;BMP180;10303;51.960;8.372;2023-07-28T09:02:24;99613.00;;;24.20
20289;BMP180;10303;51.960;8.372;2023-07-28T09:04:50;99628.00;;;24.20
20289;BMP180;10303;51.960;8.372;2023-07-28T09:07:16;99625.00;;;24.20
20289;BMP180;10303;51.960;8.372;2023-07-28T09:09:42;99635.00;;;24.20
20289;BMP180;10303;51.960;8.372;2023-07-28T09:12:09;99629.00;;;24.20
20289;BMP180;10303;51.960;8.372;2023-07-28T09:14:36;99634.00;;;24.20
20289;BMP180;10303;51.960;8.372;2023-07-28T09:17:11;99626.00;;;24.10
20289;BMP180;10303;51.960;8.372;2023-07-28T09:19:56;99647.00;;;24.20
20289;BMP180;10303;51.960;8.372;2023-07-28T09:22:23;99637.00;;;24.30
20289;BMP180;10303;51.960;8.372;2023-07-28T09:24:50;99644.00;;;24.30
20289;BMP180;10303;51.960;8.372;2023-07-28T09:27:25;99647.00;;;24.30
20289;BMP180;10303;51.960;8.372;2023-07-28T09:29:54;99640.00;;;24.40
20289;BMP180;10303;51.960;8.372;2023-07-28T09:32:33;99637.00;;;24.30
20289;BMP180;10303;51.960;8.372;2023-07-28T09:35:13;99651.00;;;24.30
20289;BMP180;10303;51.960;8.372;2023-07-28T09:37:42;99661.00;;;24.20
20289;BMP180;10303;51.960;8.372;2023-07-28T09:40:11;99659.00;;;24.10
20289;BMP180;10303;51.960;8.372;2023-07-28T09:42:43;99658.00;;;24.10
20289;BMP180;10303;51.960;8.372;2023-07-28T09:45:11;99653.00;;;24.10
20289;BMP180;10303;51.960;8.372;2023-07-28T09:47:38;99661.00;;;24.20
20289;BMP180;10303;51.960;8.372;2023-07-28T09:50:10;99659.00;;;24.30
20289;BMP180;10303;51.960;8.372;2023-07-28T09:52:46;99660.00;;;24.30
20289;BMP180;10303;51.960;8.372;2023-07-28T09:55:12;99664.00;;;24.30
20289;BMP180;10303;51.960;8.372;2023-07-28T09:57:58;99661.00;;;24.30
20289;BMP180;10303;51.960;8.372;2023-07-28T10:00:28;99681.00;;;24.20
20289;BMP180;10303;51.960;8.372;2023-07-28T10:02:56;99674.00;;;24.20
20289;BMP180;10303;51.960;8.372;2023-07-28T10:05:23;99665.00;;;24.20
20289;BMP180;10303;51.960;8.372;2023-07-28T10:07:51;99677.00;;;24.20
20289;BMP180;10303;51.960;8.372;2023-07-28T10:10:18;99683.00;;;24.10
20289;BMP180;10303;51.960;8.372;2023-07-28T10:12:50;99681.00;;;24.10
20289;BMP180;10303;51.960;8.372;2023-07-28T10:15:28;99679.00;;;24.00
20289;BMP180;10303;51.960;8.372;2023-07-28T10:17:56;99679.00;;;24.10
20289;BMP180;10303;51.960;8.372;2023-07-28T10:20:37;99685.00;;;24.10
20289;BMP180;10303;51.960;8.372;2023-07-28T10:23:21;99681.00;;;24.10
20289;BMP180;10303;51.960;8.372;2023-07-28T10:25:59;99688.00;;;24.10
20289;BMP180;10303;51.960;8.372;2023-07-28T10:28:36;99684.00;;;24.10
20289;BMP180;10303;51.960;8.372;2023-07-28T10:31:11;99686.00;;;24.10
20289;BMP180;10303;51.960;8.372;2023-07-28T10:33:45;99691.00;;;24.10
20289;BMP180;10303;51.960;8.372;2023-07-28T10:41:30;99694.00;;;24.10
20289;BMP180;10303;51.960;8.372;2023-07-28T10:43:59;99692.00;;;24.10
20289;BMP180;10303;51.960;8.372;2023-07-28T10:46:26;99692.00;;;24.20
20289;BMP180;10303;51.960;8.372;2023-07-28T10:48:54;99695.00;;;24.20
20289;BMP180;10303;51.960;8.372;2023-07-28T10:51:22;99690.00;;;24.10
20289;BMP180;10303;51.960;8.372;2023-07-28T10:53:54;99691.00;;;24.20
20289;BMP180;10303;51.960;8.372;2023-07-28T10:56:21;99695.00;;;24.20
20289;BMP180;10303;51.960;8.372;2023-07-28T10:59:04;99703.00;;;24.20
20289;BMP180;10303;51.960;8.372;2023-07-28T11:01:37;99700.00;;;24.30
20289;BMP180;10303;51.960;8.372;2023-07-28T11:04:18;99701.00;;;24.30
20289;BMP180;10303;51.960;8.372;2023-07-28T11:06:48;99700.00;;;24.40
20289;BMP180;10303;51.960;8.372;2023-07-28T11:09:17;99698.00;;;24.50
20289;BMP180;10303;51.960;8.372;2023-07-28T11:11:44;99689.00;;;24.60
20289;BMP180;10303;51.960;8.372;2023-07-28T11:14:11;99686.00;;;24.70
20289;BMP180;10303;51.960;8.372;2023-07-28T11:16:40;99682.00;;;24.80
20289;BMP180;10303;51.960;8.372;2023-07-28T11:19:12;99688.00;;;25.00
20289;BMP180;10303;51.960;8.372;2023-07-28T11:21:43;99674.00;;;25.20
20289;BMP180;10303;51.960;8.372;2023-07-28T11:24:11;99679.00;;;25.30
20289;BMP180;10303;51.960;8.372;2023-07-28T11:26:40;99682.00;;;25.50
20289;BMP180;10303;51.960;8.372;2023-07-28T11:29:06;99685.00;;;25.50
20289;BMP180;10303;51.960;8.372;2023-07-28T11:31:34;99688.00;;;25.60
20289;BMP180;10303;51.960;8.372;2023-07-28T11:34:00;99683.00;;;25.60
20289;BMP180;10303;51.960;8.372;2023-07-28T11:36:29;99685.00;;;25.60
20289;BMP180;10303;51.960;8.372;2023-07-28T11:38:59;99682.00;;;25.60
20289;BMP180;10303;51.960;8.372;2023-07-28T11:41:26;99686.00;;;25.70
20289;BMP180;10303;51.960;8.372;2023-07-28T11:43:53;99690.00;;;25.80
20289;BMP180;10303;51.960;8.372;2023-07-28T11:46:38;99704.00;;;25.90
20289;BMP180;10303;51.960;8.372;2023-07-28T11:49:16;99691.00;;;26.00
20289;BMP180;10303;51.960;8.372;2023-07-28T11:51:48;99696.00;;;26.10
20289;BMP180;10303;51.960;8.372;2023-07-28T11:54:16;99696.00;;;26.20
20289;BMP180;10303;51.960;8.372;2023-07-28T11:56:45;99694.00;;;26.30
20289;BMP180;10303;51.960;8.372;2023-07-28T11:59:15;99701.00;;;26.40
20289;BMP180;10303;51.960;8.372;2023-07-28T12:01:59;99694.00;;;26.40
20289;BMP180;10303;51.960;8.372;2023-07-28T12:04:30;99689.00;;;26.50
20289;BMP180;10303;51.960;8.372;2023-07-28T12:07:10;99690.00;;;26.50
20289;BMP180;10303;51.960;8.372;2023-07-28T12:12:16;99695.00;;;26.50
20289;BMP180;10303;51.960;8.372;2023-07-28T12:14:42;99701.00;;;26.50
20289;BMP180;10303;51.960;8.372;2023-07-28T12:17:20;99710.00;;;26.30
20289;BMP180;10303;51.960;8.372;2023-07-28T12:20:08;99707.00;;;26.20
20289;BMP180;10303;51.960;8.372;2023-07-28T12:22:45;99706.00;;;26.20
20289;BMP180;10303;51.960;8.372;2023-07-28T12:25:12;99710.00;;;26.30
20289;BMP180;10303;51.960;8.372;2023-07-28T12:27:38;99704.00;;;26.40
20289;BMP180;10303;51.960;8.372;2023-07-28T12:30:07;99704.00;;;26.60
20289;BMP180;10303;51.960;8.372;2023-07-28T12:32:35;99694.00;;;26.80
20289;BMP180;10303;51.960;8.372;2023-07-28T12:35:01;99693.00;;;27.00
20289;BMP180;10303;51.960;8.372;2023-07-28T12:37:29;99691.00;;;27.30
20289;BMP180;10303;51.960;8.372;2023-07-28T12:39:56;99681.00;;;27.50
20289;BMP180;10303;51.960;8.372;2023-07-28T12:42:24;99695.00;;;27.60
20289;BMP180;10303;51.960;8.372;2023-07-28T12:44:50;99688.00;;;27.70
20289;BMP180;10303;51.960;8.372;2023-07-28T12:47:17;99694.00;;;27.70
20289;BMP180;10303;51.960;8.372;2023-07-28T12:49:43;99689.00;;;27.70
20289;BMP180;10303;51.960;8.372;2023-07-28T12:52:09;99684.00;;;27.70
20289;BMP180;10303;51.960;8.372;2023-07-28T12:54:35;99687.00;;;27.80
20289;BMP180;10303;51.960;8.372;2023-07-28T12:57:01;99690.00;;;28.00
20289;BMP180;10303;51.960;8.372;2023-07-28T12:59:27;99694.00;;;28.20
20289;BMP180;10303;51.960;8.372;2023-07-28T13:01:56;99693.00;;;28.30
20289;BMP180;10303;51.960;8.372;2023-07-28T13:04:22;99692.00;;;28.30
20289;BMP180;10303;51.960;8.372;2023-07-28T13:06:49;99699.00;;;28.30
20289;BMP180;10303;51.960;8.372;2023-07-28T13:09:15;99692.00;;;28.30
20289;BMP180;10303;51.960;8.372;2023-07-28T13:11:41;99693.00;;;28.40
20289;BMP180;10303;51.960;8.372;2023-07-28T13:14:07;99703.00;;;28.40
20289;BMP180;10303;51.960;8.372;2023-07-28T13:16:33;99704.00;;;28.40
20289;BMP180;10303;51.960;8.372;2023-07-28T13:18:59;99701.00;;;28.40
20289;BMP180;10303;51.960;8.372;2023-07-28T13:21:25;99692.00;;;28.50
20289;BMP180;10303;51.960;8.372;2023-07-28T13:23:51;99683.00;;;28.50
20289;BMP180;10303;51.960;8.372;2023-07-28T13:26:17;99694.00;;;28.60
20289;BMP180;10303;51.960;8.372;2023-07-28T13:28:43;99696.00;;;28.70
20289;BMP180;10303;51.960;8.372;2023-07-28T13:31:17;99693.00;;;28.80
20289;BMP180;10303;51.960;8.372;2023-07-28T13:33:44;99694.00;;;28.90
20289;BMP180;10303;51.960;8.372;2023-07-28T13:36:11;99689.00;;;29.10
20289;BMP180;10303;51.960;8.372;2023-07-28T13:38:37;99691.00;;;29.10
20289;BMP180;10303;51.960;8.372;2023-07-28T13:41:05;99691.00;;;29.10
20289;BMP180;10303;51.960;8.372;2023-07-28T13:43:33;99692.00;;;29.20
20289;BMP180;10303;51.960;8.372;2023-07-28T13:46:02;99693.00;;;29.30
20289;BMP180;10303;51.960;8.372;2023-07-28T13:48:30;99687.00;;;29.30
20289;BMP180;10303;51.960;8.372;2023-07-28T13:50:57;99687.00;;;29.30
20289;BMP180;10303;51.960;8.372;2023-07-28T13:53:24;99694.00;;;29.30
20289;BMP180;10303;51.960;8.372;2023-07-28T13:55:50;99690.00;;;29.30
20289;BMP180;10303;51.960;8.372;2023-07-28T13:58:17;99686.00;;;29.30
20289;BMP180;10303;51.960;8.372;2023-07-28T14:00:43;99682.00;;;29.30
20289;BMP180;10303;51.960;8.372;2023-07-28T14:03:09;99688.00;;;29.30
20289;BMP180;10303;51.960;8.372;2023-07-28T14:05:35;99686.00;;;29.30
20289;BMP180;10303;51.960;8.372;2023-07-28T14:08:02;99681.00;;;29.20
20289;BMP180;10303;51.960;8.372;2023-07-28T14:10:28;99685.00;;;29.20
20289;BMP180;10303;51.960;8.372;2023-07-28T14:12:54;99675.00;;;29.20
20289;BMP180;10303;51.960;8.372;2023-07-28T14:15:20;99689.00;;;29.20
20289;BMP180;10303;51.960;8.372;2023-07-28T14:17:45;99682.00;;;29.20
20289;BMP180;10303;51.960;8.372;2023-07-28T14:20:12;99684.00;;;29.20
20289;BMP180;10303;51.960;8.372;2023-07-28T14:22:37;99669.00;;;29.10
20289;BMP180;10303;51.960;8.372;2023-07-28T14:25:04;99689.00;;;29.10
20289;BMP180;10303;51.960;8.372;2023-07-28T14:27:30;99682.00;;;29.10